sensor_id;sensor_type;location;lat;lon;timestamp;P1;durP1;ratioP1;P2;durP2;ratioP2
39410;SDS011;26579;43.238;23.124;2023-08-30T00:01:16;16.38;;;5.72;;
39410;SDS011;26579;43.238;23.124;2023-08-30T00:03:42;12.30;;;5.68;;
39410;SDS011;26579;43.238;23.124;2023-08-30T00:06:08;11.38;;;5.85;;
39410;SDS011;26579;43.238;23.124;2023-08-30T00:08:34;10.80;;;5.13;;
39410;SDS011;26579;43.238;23.124;2023-08-30T00:11:00;9.82;;;5.47;;
39410;SDS011;26579;43.238;23.124;2023-08-30T00:13:26;18.13;;;6.75;;
39410;SDS011;26579;43.238;23.124;2023-08-30T00:15:54;10.70;;;5.63;;
39410;SDS011;26579;43.238;23.124;2023-08-30T00:18:20;11.68;;;5.80;;
39410;SDS011;26579;43.238;23.124;2023-08-30T00:20:46;13.45;;;6.38;;
39410;SDS011;26579;43.238;23.124;2023-08-30T00:23:11;14.00;;;5.72;;
39410;SDS011;26579;43.238;23.124;2023-08-30T00:25:37;12.73;;;5.90;;
39410;SDS011;26579;43.238;23.124;2023-08-30T00:28:03;12.43;;;6.35;;
39410;SDS011;26579;43.238;23.124;2023-08-30T00:30:29;12.32;;;5.75;;
39410;SDS011;26579;43.238;23.124;2023-08-30T00:32:54;13.95;;;6.97;;
39410;SDS011;26579;43.238;23.124;2023-08-30T00:35:20;12.40;;;6.20;;
39410;SDS011;26579;43.238;23.124;2023-08-30T00:37:46;11.35;;;6.05;;
39410;SDS011;26579;43.238;23.124;2023-08-30T00:40:11;14.20;;;6.10;;
39410;SDS011;26579;43.238;23.124;2023-08-30T00:42:37;7.10;;;5.40;;
39410;SDS011;26579;43.238;23.124;2023-08-30T00:45:03;11.45;;;5.75;;
39410;SDS011;26579;43.238;23.124;2023-08-30T00:47:31;12.77;;;5.78;;
39410;SDS011;26579;43.238;23.124;2023-08-30T00:49:57;11.30;;;6.18;;
39410;SDS011;26579;43.238;23.124;2023-08-30T00:52:23;12.40;;;5.72;;
39410;SDS011;26579;43.238;23.124;2023-08-30T00:54:49;14.48;;;7.03;;
39410;SDS011;26579;43.238;23.124;2023-08-30T00:57:14;11.07;;;6.18;;
39410;SDS011;26579;43.238;23.124;2023-08-30T00:59:41;16.35;;;6.45;;
39410;SDS011;26579;43.238;23.124;2023-08-30T01:02:07;12.88;;;6.18;;
39410;SDS011;26579;43.238;23.124;2023-08-30T01:04:34;9.98;;;5.43;;
39410;SDS011;26579;43.238;23.124;2023-08-30T01:06:59;12.45;;;5.88;;
39410;SDS011;26579;43.238;23.124;2023-08-30T01:09:25;9.52;;;5.80;;
39410;SDS011;26579;43.238;23.124;2023-08-30T01:14:38;18.95;;;6.57;;
39410;SDS011;26579;43.238;23.124;2023-08-30T01:17:39;12.75;;;6.07;;
39410;SDS011;26579;43.238;23.124;2023-08-30T01:20:09;12.85;;;6.32;;
39410;SDS011;26579;43.238;23.124;2023-08-30T01:27:48;9.90;;;6.22;;
39410;SDS011;26579;43.238;23.124;2023-08-30T01:30:16;11.63;;;6.13;;
39410;SDS011;26579;43.238;23.124;2023-08-30T01:32:43;10.27;;;5.32;;
39410;SDS011;26579;43.238;23.124;2023-08-30T01:35:10;16.80;;;6.65;;
39410;SDS011;26579;43.238;23.124;2023-08-30T01:37:38;12.02;;;6.82;;
39410;SDS011;26579;43.238;23.124;2023-08-30T01:40:05;14.10;;;6.60;;
39410;SDS011;26579;43.238;23.124;2023-08-30T01:42:33;11.80;;;6.18;;
39410;SDS011;26579;43.238;23.124;2023-08-30T01:45:01;13.85;;;6.15;;
39410;SDS011;26579;43.238;23.124;2023-08-30T01:47:28;9.82;;;6.85;;
39410;SDS011;26579;43.238;23.124;2023-08-30T01:49:55;17.80;;;6.85;;
39410;SDS011;26579;43.238;23.124;2023-08-30T01:52:23;14.98;;;6.90;;
39410;SDS011;26579;43.238;23.124;2023-08-30T01:54:53;10.63;;;6.78;;
39410;SDS011;26579;43.238;23.124;2023-08-30T01:57:18;12.73;;;6.68;;
39410;SDS011;26579;43.238;23.124;2023-08-30T01:59:45;9.32;;;6.43;;
39410;SDS011;26579;43.238;23.124;2023-08-30T02:02:11;11.75;;;6.95;;
39410;SDS011;26579;43.238;23.124;2023-08-30T02:04:36;12.00;;;6.70;;
39410;SDS011;26579;43.238;23.124;2023-08-30T02:07:13;13.95;;;7.13;;
39410;SDS011;26579;43.238;23.124;2023-08-30T02:09:50;16.85;;;7.90;;
39410;SDS011;26579;43.238;23.124;2023-08-30T02:12:23;17.27;;;6.82;;
39410;SDS011;26579;43.238;23.124;2023-08-30T02:14:52;12.60;;;6.85;;
39410;SDS011;26579;43.238;23.124;2023-08-30T02:17:18;12.68;;;7.05;;
39410;SDS011;26579;43.238;23.124;2023-08-30T02:19:44;12.90;;;6.30;;
39410;SDS011;26579;43.238;23.124;2023-08-30T02:22:11;14.57;;;7.20;;
39410;SDS011;26579;43.238;23.124;2023-08-30T02:24:37;13.77;;;6.95;;
39410;SDS011;26579;43.238;23.124;2023-08-30T02:27:03;13.45;;;6.95;;
39410;SDS011;26579;43.238;23.124;2023-08-30T02:29:29;9.88;;;6.80;;
39410;SDS011;26579;43.238;23.124;2023-08-30T02:31:55;15.82;;;7.05;;
39410;SDS011;26579;43.238;23.124;2023-08-30T02:34:21;13.95;;;7.10;;
39410;SDS011;26579;43.238;23.124;2023-08-30T02:36:46;11.07;;;6.80;;
39410;SDS011;26579;43.238;23.124;2023-08-30T02:39:13;15.10;;;7.25;;
39410;SDS011;26579;43.238;23.124;2023-08-30T02:41:40;14.25;;;7.70;;
39410;SDS011;26579;43.238;23.124;2023-08-30T02:44:07;12.15;;;6.50;;
39410;SDS011;26579;43.238;23.124;2023-08-30T02:46:33;12.00;;;6.82;;
39410;SDS011;26579;43.238;23.124;2023-08-30T02:48:59;14.93;;;6.35;;
39410;SDS011;26579;43.238;23.124;2023-08-30T02:51:25;13.68;;;6.85;;
39410;SDS011;26579;43.238;23.124;2023-08-30T02:53:51;16.92;;;6.20;;
39410;SDS011;26579;43.238;23.124;2023-08-30T02:56:16;12.68;;;6.75;;
39410;SDS011;26579;43.238;23.124;2023-08-30T02:58:42;13.88;;;7.35;;
39410;SDS011;26579;43.238;23.124;2023-08-30T03:01:08;10.85;;;5.90;;
39410;SDS011;26579;43.238;23.124;2023-08-30T03:03:33;18.08;;;6.95;;
39410;SDS011;26579;43.238;23.124;2023-08-30T03:06:00;13.38;;;6.70;;
39410;SDS011;26579;43.238;23.124;2023-08-30T03:08:27;14.38;;;6.75;;
39410;SDS011;26579;43.238;23.124;2023-08-30T03:10:53;11.32;;;6.53;;
39410;SDS011;26579;43.238;23.124;2023-08-30T03:13:19;11.95;;;6.20;;
39410;SDS011;26579;43.238;23.124;2023-08-30T03:15:45;14.95;;;5.85;;
39410;SDS011;26579;43.238;23.124;2023-08-30T03:18:10;13.20;;;7.50;;
39410;SDS011;26579;43.238;23.124;2023-08-30T03:20:36;11.57;;;6.50;;
39410;SDS011;26579;43.238;23.124;2023-08-30T03:23:02;11.13;;;6.25;;
39410;SDS011;26579;43.238;23.124;2023-08-30T03:25:28;11.27;;;6.63;;
39410;SDS011;26579;43.238;23.124;2023-08-30T03:27:54;12.18;;;6.57;;
39410;SDS011;26579;43.238;23.124;2023-08-30T03:30:22;14.73;;;6.80;;
39410;SDS011;26579;43.238;23.124;2023-08-30T03:32:47;13.95;;;6.88;;
39410;SDS011;26579;43.238;23.124;2023-08-30T03:35:15;13.48;;;6.82;;
39410;SDS011;26579;43.238;23.124;2023-08-30T03:37:40;13.18;;;6.35;;
39410;SDS011;26579;43.238;23.124;2023-08-30T03:40:06;13.48;;;6.40;;
39410;SDS011;26579;43.238;23.124;2023-08-30T03:42:32;14.90;;;7.53;;
39410;SDS011;26579;43.238;23.124;2023-08-30T03:44:58;14.73;;;7.15;;
39410;SDS011;26579;43.238;23.124;2023-08-30T03:47:24;14.57;;;7.38;;
39410;SDS011;26579;43.238;23.124;2023-08-30T03:49:50;9.35;;;6.82;;
39410;SDS011;26579;43.238;23.124;2023-08-30T03:52:15;11.38;;;6.57;;
39410;SDS011;26579;43.238;23.124;2023-08-30T03:54:41;12.73;;;6.97;;
39410;SDS011;26579;43.238;23.124;2023-08-30T03:57:07;16.38;;;7.93;;
39410;SDS011;26579;43.238;23.124;2023-08-30T03:59:32;16.83;;;10.45;;
39410;SDS011;26579;43.238;23.124;2023-08-30T04:01:58;18.45;;;10.45;;
39410;SDS011;26579;43.238;23.124;2023-08-30T04:04:24;17.27;;;8.88;;
39410;SDS011;26579;43.238;23.124;2023-08-30T04:06:50;13.05;;;7.88;;
39410;SDS011;26579;43.238;23.124;2023-08-30T04:09:15;12.88;;;8.20;;
39410;SDS011;26579;43.238;23.124;2023-08-30T04:11:41;21.58;;;13.23;;
39410;SDS011;26579;43.238;23.124;2023-08-30T04:14:07;20.58;;;12.57;;
39410;SDS011;26579;43.238;23.124;2023-08-30T04:16:34;28.67;;;14.73;;
39410;SDS011;26579;43.238;23.124;2023-08-30T04:19:00;18.15;;;10.73;;
39410;SDS011;26579;43.238;23.124;2023-08-30T04:21:25;19.05;;;11.27;;
39410;SDS011;26579;43.238;23.124;2023-08-30T04:23:51;15.73;;;8.48;;
39410;SDS011;26579;43.238;23.124;2023-08-30T04:26:17;14.88;;;7.25;;
39410;SDS011;26579;43.238;23.124;2023-08-30T04:28:43;15.07;;;6.93;;
39410;SDS011;26579;43.238;23.124;2023-08-30T04:31:09;11.35;;;6.68;;
39410;SDS011;26579;43.238;23.124;2023-08-30T04:33:34;12.95;;;7.53;;
39410;SDS011;26579;43.238;23.124;2023-08-30T04:36:01;18.42;;;6.85;;
39410;SDS011;26579;43.238;23.124;2023-08-30T04:38:27;16.92;;;7.40;;
39410;SDS011;26579;43.238;23.124;2023-08-30T04:40:56;18.02;;;7.82;;
39410;SDS011;26579;43.238;23.124;2023-08-30T04:43:23;11.30;;;6.70;;
39410;SDS011;26579;43.238;23.124;2023-08-30T04:45:49;10.00;;;6.30;;
39410;SDS011;26579;43.238;23.124;2023-08-30T04:48:15;17.75;;;6.75;;
39410;SDS011;26579;43.238;23.124;2023-08-30T04:50:42;13.73;;;6.90;;
39410;SDS011;26579;43.238;23.124;2023-08-30T04:53:09;12.73;;;6.85;;
39410;SDS011;26579;43.238;23.124;2023-08-30T04:55:34;11.23;;;7.55;;
39410;SDS011;26579;43.238;23.124;2023-08-30T04:58:00;16.90;;;7.22;;
39410;SDS011;26579;43.238;23.124;2023-08-30T05:00:31;11.30;;;7.15;;
39410;SDS011;26579;43.238;23.124;2023-08-30T05:02:57;13.30;;;7.88;;
39410;SDS011;26579;43.238;23.124;2023-08-30T05:05:22;10.88;;;7.78;;
39410;SDS011;26579;43.238;23.124;2023-08-30T05:07:49;14.25;;;7.40;;
39410;SDS011;26579;43.238;23.124;2023-08-30T05:10:14;14.55;;;7.68;;
39410;SDS011;26579;43.238;23.124;2023-08-30T05:12:41;10.10;;;6.93;;
39410;SDS011;26579;43.238;23.124;2023-08-30T05:15:06;10.18;;;6.70;;
39410;SDS011;26579;43.238;23.124;2023-08-30T05:17:32;13.57;;;7.13;;
39410;SDS011;26579;43.238;23.124;2023-08-30T05:19:59;14.48;;;7.30;;
39410;SDS011;26579;43.238;23.124;2023-08-30T05:22:24;14.35;;;7.10;;
39410;SDS011;26579;43.238;23.124;2023-08-30T05:24:50;17.27;;;7.95;;
39410;SDS011;26579;43.238;23.124;2023-08-30T05:27:16;16.27;;;7.93;;
39410;SDS011;26579;43.238;23.124;2023-08-30T05:29:42;16.25;;;7.95;;
39410;SDS011;26579;43.238;23.124;2023-08-30T05:32:08;13.50;;;7.70;;
39410;SDS011;26579;43.238;23.124;2023-08-30T05:35:06;15.68;;;7.13;;
39410;SDS011;26579;43.238;23.124;2023-08-30T05:37:51;12.48;;;6.68;;
39410;SDS011;26579;43.238;23.124;2023-08-30T05:40:36;13.70;;;7.32;;
39410;SDS011;26579;43.238;23.124;2023-08-30T05:43:02;13.98;;;7.20;;
39410;SDS011;26579;43.238;23.124;2023-08-30T05:45:28;17.23;;;7.43;;
39410;SDS011;26579;43.238;23.124;2023-08-30T05:47:54;15.30;;;6.82;;
39410;SDS011;26579;43.238;23.124;2023-08-30T05:50:19;18.67;;;8.10;;
39410;SDS011;26579;43.238;23.124;2023-08-30T05:52:45;21.08;;;9.00;;
39410;SDS011;26579;43.238;23.124;2023-08-30T05:55:11;12.90;;;7.43;;
39410;SDS011;26579;43.238;23.124;2023-08-30T05:57:37;14.20;;;7.38;;
39410;SDS011;26579;43.238;23.124;2023-08-30T06:00:03;14.55;;;7.72;;
39410;SDS011;26579;43.238;23.124;2023-08-30T06:02:39;10.88;;;7.35;;
39410;SDS011;26579;43.238;23.124;2023-08-30T06:05:06;17.02;;;7.35;;
39410;SDS011;26579;43.238;23.124;2023-08-30T06:07:32;13.68;;;7.90;;
39410;SDS011;26579;43.238;23.124;2023-08-30T06:09:58;24.48;;;8.35;;
39410;SDS011;26579;43.238;23.124;2023-08-30T06:12:24;13.38;;;7.68;;
39410;SDS011;26579;43.238;23.124;2023-08-30T06:14:49;14.48;;;8.48;;
39410;SDS011;26579;43.238;23.124;2023-08-30T06:17:15;12.63;;;9.02;;
39410;SDS011;26579;43.238;23.124;2023-08-30T06:19:41;10.90;;;7.65;;
39410;SDS011;26579;43.238;23.124;2023-08-30T06:22:06;13.30;;;8.00;;
39410;SDS011;26579;43.238;23.124;2023-08-30T06:24:32;15.68;;;8.02;;
39410;SDS011;26579;43.238;23.124;2023-08-30T06:26:58;16.60;;;8.13;;
39410;SDS011;26579;43.238;23.124;2023-08-30T06:29:23;12.40;;;6.95;;
39410;SDS011;26579;43.238;23.124;2023-08-30T06:31:51;13.45;;;6.78;;
39410;SDS011;26579;43.238;23.124;2023-08-30T06:34:17;14.13;;;7.00;;
39410;SDS011;26579;43.238;23.124;2023-08-30T06:36:47;10.68;;;7.10;;
39410;SDS011;26579;43.238;23.124;2023-08-30T06:39:15;17.20;;;7.68;;
39410;SDS011;26579;43.238;23.124;2023-08-30T06:41:42;13.75;;;7.45;;
39410;SDS011;26579;43.238;23.124;2023-08-30T06:44:09;11.57;;;7.85;;
39410;SDS011;26579;43.238;23.124;2023-08-30T06:46:36;14.48;;;7.93;;
39410;SDS011;26579;43.238;23.124;2023-08-30T06:49:02;15.38;;;7.25;;
39410;SDS011;26579;43.238;23.124;2023-08-30T06:51:28;15.82;;;7.95;;
39410;SDS011;26579;43.238;23.124;2023-08-30T06:53:54;9.68;;;6.70;;
39410;SDS011;26579;43.238;23.124;2023-08-30T06:56:20;11.38;;;6.40;;
39410;SDS011;26579;43.238;23.124;2023-08-30T06:58:46;12.13;;;6.60;;
39410;SDS011;26579;43.238;23.124;2023-08-30T07:01:12;10.40;;;5.90;;
39410;SDS011;26579;43.238;23.124;2023-08-30T07:03:38;12.30;;;6.78;;
39410;SDS011;26579;43.238;23.124;2023-08-30T07:06:05;9.27;;;6.43;;
39410;SDS011;26579;43.238;23.124;2023-08-30T07:08:31;11.98;;;6.57;;
39410;SDS011;26579;43.238;23.124;2023-08-30T07:10:57;14.73;;;7.68;;
39410;SDS011;26579;43.238;23.124;2023-08-30T07:13:24;16.00;;;7.50;;
39410;SDS011;26579;43.238;23.124;2023-08-30T07:15:51;11.07;;;6.60;;
39410;SDS011;26579;43.238;23.124;2023-08-30T07:18:17;11.65;;;7.05;;
39410;SDS011;26579;43.238;23.124;2023-08-30T07:20:44;13.65;;;7.65;;
39410;SDS011;26579;43.238;23.124;2023-08-30T07:23:09;12.82;;;6.75;;
39410;SDS011;26579;43.238;23.124;2023-08-30T07:25:35;11.00;;;6.38;;
39410;SDS011;26579;43.238;23.124;2023-08-30T07:28:03;10.32;;;6.78;;
39410;SDS011;26579;43.238;23.124;2023-08-30T07:30:29;10.85;;;5.63;;
39410;SDS011;26579;43.238;23.124;2023-08-30T07:32:54;15.18;;;7.60;;
39410;SDS011;26579;43.238;23.124;2023-08-30T07:35:20;15.05;;;7.45;;
39410;SDS011;26579;43.238;23.124;2023-08-30T07:37:49;13.15;;;6.50;;
39410;SDS011;26579;43.238;23.124;2023-08-30T07:40:14;9.20;;;6.75;;
39410;SDS011;26579;43.238;23.124;2023-08-30T07:42:50;10.80;;;7.43;;
39410;SDS011;26579;43.238;23.124;2023-08-30T07:45:18;14.13;;;7.50;;
39410;SDS011;26579;43.238;23.124;2023-08-30T07:47:43;15.02;;;6.82;;
39410;SDS011;26579;43.238;23.124;2023-08-30T07:50:09;12.25;;;7.13;;
39410;SDS011;26579;43.238;23.124;2023-08-30T07:52:46;10.70;;;7.15;;
39410;SDS011;26579;43.238;23.124;2023-08-30T07:55:16;12.30;;;7.80;;
39410;SDS011;26579;43.238;23.124;2023-08-30T07:57:46;11.52;;;7.25;;
39410;SDS011;26579;43.238;23.124;2023-08-30T08:00:17;13.57;;;7.28;;
39410;SDS011;26579;43.238;23.124;2023-08-30T08:02:51;13.70;;;7.63;;
39410;SDS011;26579;43.238;23.124;2023-08-30T08:05:26;12.38;;;7.50;;
39410;SDS011;26579;43.238;23.124;2023-08-30T08:07:52;11.90;;;8.25;;
39410;SDS011;26579;43.238;23.124;2023-08-30T08:10:26;13.57;;;7.28;;
39410;SDS011;26579;43.238;23.124;2023-08-30T08:13:00;13.20;;;7.88;;
39410;SDS011;26579;43.238;23.124;2023-08-30T08:15:26;10.35;;;6.55;;
39410;SDS011;26579;43.238;23.124;2023-08-30T08:17:53;14.90;;;7.55;;
39410;SDS011;26579;43.238;23.124;2023-08-30T08:20:21;12.32;;;6.95;;
39410;SDS011;26579;43.238;23.124;2023-08-30T08:22:47;10.77;;;7.13;;
39410;SDS011;26579;43.238;23.124;2023-08-30T08:25:13;13.63;;;7.45;;
39410;SDS011;26579;43.238;23.124;2023-08-30T08:27:38;22.10;;;6.97;;
39410;SDS011;26579;43.238;23.124;2023-08-30T08:30:04;20.05;;;7.68;;
39410;SDS011;26579;43.238;23.124;2023-08-30T08:32:31;8.07;;;5.95;;
39410;SDS011;26579;43.238;23.124;2023-08-30T08:34:57;11.05;;;6.47;;
39410;SDS011;26579;43.238;23.124;2023-08-30T08:37:23;12.00;;;7.30;;
39410;SDS011;26579;43.238;23.124;2023-08-30T08:39:49;28.63;;;11.38;;
39410;SDS011;26579;43.238;23.124;2023-08-30T08:42:19;9.27;;;6.28;;
39410;SDS011;26579;43.238;23.124;2023-08-30T08:44:51;10.15;;;5.65;;
39410;SDS011;26579;43.238;23.124;2023-08-30T08:47:20;12.02;;;6.13;;
39410;SDS011;26579;43.238;23.124;2023-08-30T08:49:49;15.48;;;6.63;;
39410;SDS011;26579;43.238;23.124;2023-08-30T08:52:15;8.95;;;5.47;;
39410;SDS011;26579;43.238;23.124;2023-08-30T08:54:42;7.47;;;5.10;;
39410;SDS011;26579;43.238;23.124;2023-08-30T08:57:09;11.30;;;5.90;;
39410;SDS011;26579;43.238;23.124;2023-08-30T08:59:35;6.90;;;4.75;;
39410;SDS011;26579;43.238;23.124;2023-08-30T09:02:01;8.95;;;5.35;;
39410;SDS011;26579;43.238;23.124;2023-08-30T09:04:31;11.23;;;4.55;;
39410;SDS011;26579;43.238;23.124;2023-08-30T09:06:58;7.70;;;4.35;;
39410;SDS011;26579;43.238;23.124;2023-08-30T09:09:24;11.13;;;4.35;;
39410;SDS011;26579;43.238;23.124;2023-08-30T09:11:50;7.38;;;4.13;;
39410;SDS011;26579;43.238;23.124;2023-08-30T09:14:16;9.02;;;4.18;;
39410;SDS011;26579;43.238;23.124;2023-08-30T09:16:42;10.38;;;4.85;;
39410;SDS011;26579;43.238;23.124;2023-08-30T09:19:08;7.80;;;4.22;;
39410;SDS011;26579;43.238;23.124;2023-08-30T09:21:33;9.18;;;4.00;;
39410;SDS011;26579;43.238;23.124;2023-08-30T09:24:07;10.05;;;4.07;;
39410;SDS011;26579;43.238;23.124;2023-08-30T09:26:33;11.27;;;4.45;;
39410;SDS011;26579;43.238;23.124;2023-08-30T09:31:38;7.65;;;3.55;;
39410;SDS011;26579;43.238;23.124;2023-08-30T09:34:04;10.43;;;3.60;;
39410;SDS011;26579;43.238;23.124;2023-08-30T09:36:34;8.30;;;3.45;;
39410;SDS011;26579;43.238;23.124;2023-08-30T09:39:02;5.60;;;3.20;;
39410;SDS011;26579;43.238;23.124;2023-08-30T09:41:31;7.63;;;3.90;;
39410;SDS011;26579;43.238;23.124;2023-08-30T09:43:57;8.02;;;3.28;;
39410;SDS011;26579;43.238;23.124;2023-08-30T09:46:22;6.43;;;3.42;;
39410;SDS011;26579;43.238;23.124;2023-08-30T09:48:48;7.00;;;3.40;;
39410;SDS011;26579;43.238;23.124;2023-08-30T09:51:14;10.00;;;3.80;;
39410;SDS011;26579;43.238;23.124;2023-08-30T09:53:41;10.50;;;4.10;;
39410;SDS011;26579;43.238;23.124;2023-08-30T09:56:10;8.30;;;4.13;;
39410;SDS011;26579;43.238;23.124;2023-08-30T09:58:38;6.55;;;3.40;;
39410;SDS011;26579;43.238;23.124;2023-08-30T10:01:05;8.20;;;4.10;;
39410;SDS011;26579;43.238;23.124;2023-08-30T10:03:32;9.73;;;4.13;;
39410;SDS011;26579;43.238;23.124;2023-08-30T10:05:59;10.88;;;4.40;;
39410;SDS011;26579;43.238;23.124;2023-08-30T10:08:27;7.97;;;4.07;;
39410;SDS011;26579;43.238;23.124;2023-08-30T10:10:54;7.03;;;4.03;;
39410;SDS011;26579;43.238;23.124;2023-08-30T10:13:20;7.95;;;4.00;;
39410;SDS011;26579;43.238;23.124;2023-08-30T10:15:47;5.93;;;3.72;;
39410;SDS011;26579;43.238;23.124;2023-08-30T10:18:17;9.43;;;4.97;;
39410;SDS011;26579;43.238;23.124;2023-08-30T10:20:47;8.02;;;4.68;;
39410;SDS011;26579;43.238;23.124;2023-08-30T10:23:14;11.70;;;4.20;;
39410;SDS011;26579;43.238;23.124;2023-08-30T10:25:42;9.77;;;4.10;;
39410;SDS011;26579;43.238;23.124;2023-08-30T10:28:09;6.35;;;3.42;;
39410;SDS011;26579;43.238;23.124;2023-08-30T10:30:35;7.15;;;4.53;;
39410;SDS011;26579;43.238;23.124;2023-08-30T10:33:01;7.90;;;4.35;;
39410;SDS011;26579;43.238;23.124;2023-08-30T10:35:26;8.25;;;4.18;;
39410;SDS011;26579;43.238;23.124;2023-08-30T10:37:55;10.13;;;4.93;;
39410;SDS011;26579;43.238;23.124;2023-08-30T10:40:22;7.43;;;4.43;;
39410;SDS011;26579;43.238;23.124;2023-08-30T10:43:03;8.05;;;4.25;;
39410;SDS011;26579;43.238;23.124;2023-08-30T10:45:29;9.43;;;4.00;;
39410;SDS011;26579;43.238;23.124;2023-08-30T10:47:56;7.35;;;4.22;;
39410;SDS011;26579;43.238;23.124;2023-08-30T10:50:29;8.88;;;4.07;;
39410;SDS011;26579;43.238;23.124;2023-08-30T10:52:56;11.07;;;4.18;;
39410;SDS011;26579;43.238;23.124;2023-08-30T10:55:22;8.82;;;4.10;;
39410;SDS011;26579;43.238;23.124;2023-08-30T10:57:57;9.30;;;4.43;;
39410;SDS011;26579;43.238;23.124;2023-08-30T11:00:27;7.40;;;3.95;;
39410;SDS011;26579;43.238;23.124;2023-08-30T11:02:54;9.13;;;3.80;;
39410;SDS011;26579;43.238;23.124;2023-08-30T11:05:21;12.40;;;5.28;;
39410;SDS011;26579;43.238;23.124;2023-08-30T11:07:48;9.55;;;4.93;;
39410;SDS011;26579;43.238;23.124;2023-08-30T11:10:14;10.82;;;5.35;;
39410;SDS011;26579;43.238;23.124;2023-08-30T11:12:41;8.98;;;4.65;;
39410;SDS011;26579;43.238;23.124;2023-08-30T11:15:07;13.32;;;4.68;;
39410;SDS011;26579;43.238;23.124;2023-08-30T11:17:34;7.70;;;4.30;;
39410;SDS011;26579;43.238;23.124;2023-08-30T11:22:39;8.90;;;5.13;;
39410;SDS011;26579;43.238;23.124;2023-08-30T11:25:07;7.25;;;4.72;;
39410;SDS011;26579;43.238;23.124;2023-08-30T11:27:34;10.80;;;4.55;;
39410;SDS011;26579;43.238;23.124;2023-08-30T11:30:00;10.98;;;4.35;;
39410;SDS011;26579;43.238;23.124;2023-08-30T11:32:26;8.38;;;4.30;;
39410;SDS011;26579;43.238;23.124;2023-08-30T11:34:55;8.52;;;4.53;;
39410;SDS011;26579;43.238;23.124;2023-08-30T11:37:21;8.43;;;4.68;;
39410;SDS011;26579;43.238;23.124;2023-08-30T11:39:51;6.88;;;4.50;;
39410;SDS011;26579;43.238;23.124;2023-08-30T11:42:17;8.23;;;4.82;;
39410;SDS011;26579;43.238;23.124;2023-08-30T11:44:44;7.93;;;4.53;;
39410;SDS011;26579;43.238;23.124;2023-08-30T11:47:19;8.70;;;4.70;;
39410;SDS011;26579;43.238;23.124;2023-08-30T11:49:48;8.18;;;4.72;;
39410;SDS011;26579;43.238;23.124;2023-08-30T11:52:15;8.13;;;4.78;;
39410;SDS011;26579;43.238;23.124;2023-08-30T11:54:43;8.27;;;3.90;;
39410;SDS011;26579;43.238;23.124;2023-08-30T11:57:09;8.73;;;5.05;;
39410;SDS011;26579;43.238;23.124;2023-08-30T11:59:35;12.70;;;4.80;;
39410;SDS011;26579;43.238;23.124;2023-08-30T12:02:01;9.35;;;4.50;;
39410;SDS011;26579;43.238;23.124;2023-08-30T12:04:28;7.90;;;3.85;;
39410;SDS011;26579;43.238;23.124;2023-08-30T12:06:54;10.77;;;4.82;;
39410;SDS011;26579;43.238;23.124;2023-08-30T12:09:19;8.45;;;4.70;;
39410;SDS011;26579;43.238;23.124;2023-08-30T12:11:45;7.95;;;3.90;;
39410;SDS011;26579;43.238;23.124;2023-08-30T12:14:11;12.45;;;4.55;;
39410;SDS011;26579;43.238;23.124;2023-08-30T12:16:36;8.52;;;4.55;;
39410;SDS011;26579;43.238;23.124;2023-08-30T12:19:09;11.18;;;4.70;;
39410;SDS011;26579;43.238;23.124;2023-08-30T12:21:39;9.52;;;4.00;;
39410;SDS011;26579;43.238;23.124;2023-08-30T12:24:05;14.35;;;4.70;;
39410;SDS011;26579;43.238;23.124;2023-08-30T12:26:31;8.88;;;4.20;;
39410;SDS011;26579;43.238;23.124;2023-08-30T12:28:57;7.40;;;3.83;;
39410;SDS011;26579;43.238;23.124;2023-08-30T12:31:23;9.05;;;4.70;;
39410;SDS011;26579;43.238;23.124;2023-08-30T12:33:48;11.15;;;4.13;;
39410;SDS011;26579;43.238;23.124;2023-08-30T12:36:14;7.07;;;4.82;;
39410;SDS011;26579;43.238;23.124;2023-08-30T12:38:40;6.82;;;4.25;;
39410;SDS011;26579;43.238;23.124;2023-08-30T12:41:05;6.32;;;4.30;;
39410;SDS011;26579;43.238;23.124;2023-08-30T12:43:31;8.15;;;4.90;;
39410;SDS011;26579;43.238;23.124;2023-08-30T12:45:59;7.95;;;5.43;;
39410;SDS011;26579;43.238;23.124;2023-08-30T12:48:25;8.65;;;4.72;;
39410;SDS011;26579;43.238;23.124;2023-08-30T12:50:51;8.43;;;4.90;;
39410;SDS011;26579;43.238;23.124;2023-08-30T12:53:17;12.43;;;5.20;;
39410;SDS011;26579;43.238;23.124;2023-08-30T12:55:42;8.90;;;5.00;;
39410;SDS011;26579;43.238;23.124;2023-08-30T12:58:09;7.05;;;4.57;;
39410;SDS011;26579;43.238;23.124;2023-08-30T13:00:35;8.93;;;5.10;;
39410;SDS011;26579;43.238;23.124;2023-08-30T13:03:01;14.35;;;7.47;;
39410;SDS011;26579;43.238;23.124;2023-08-30T13:05:27;9.90;;;4.78;;
39410;SDS011;26579;43.238;23.124;2023-08-30T13:07:52;10.25;;;5.07;;
39410;SDS011;26579;43.238;23.124;2023-08-30T13:10:18;12.10;;;5.60;;
39410;SDS011;26579;43.238;23.124;2023-08-30T13:12:44;20.10;;;9.30;;
39410;SDS011;26579;43.238;23.124;2023-08-30T13:15:10;9.77;;;4.95;;
39410;SDS011;26579;43.238;23.124;2023-08-30T13:17:36;10.70;;;6.15;;
39410;SDS011;26579;43.238;23.124;2023-08-30T13:20:02;11.52;;;5.82;;
39410;SDS011;26579;43.238;23.124;2023-08-30T13:22:28;11.30;;;5.40;;
39410;SDS011;26579;43.238;23.124;2023-08-30T13:24:54;8.68;;;5.13;;
39410;SDS011;26579;43.238;23.124;2023-08-30T13:27:20;9.63;;;4.30;;
39410;SDS011;26579;43.238;23.124;2023-08-30T13:29:46;11.18;;;4.68;;
39410;SDS011;26579;43.238;23.124;2023-08-30T13:32:11;11.63;;;4.63;;
39410;SDS011;26579;43.238;23.124;2023-08-30T13:34:37;7.70;;;4.35;;
39410;SDS011;26579;43.238;23.124;2023-08-30T13:37:03;10.63;;;4.65;;
39410;SDS011;26579;43.238;23.124;2023-08-30T13:39:29;11.88;;;5.55;;
39410;SDS011;26579;43.238;23.124;2023-08-30T13:41:55;7.55;;;4.65;;
39410;SDS011;26579;43.238;23.124;2023-08-30T13:44:21;11.13;;;5.00;;
39410;SDS011;26579;43.238;23.124;2023-08-30T13:46:47;16.65;;;8.25;;
39410;SDS011;26579;43.238;23.124;2023-08-30T13:49:12;15.75;;;7.93;;
39410;SDS011;26579;43.238;23.124;2023-08-30T13:51:38;11.07;;;5.00;;
39410;SDS011;26579;43.238;23.124;2023-08-30T13:54:04;15.50;;;7.63;;
39410;SDS011;26579;43.238;23.124;2023-08-30T13:56:30;8.07;;;4.43;;
39410;SDS011;26579;43.238;23.124;2023-08-30T13:58:55;7.93;;;4.20;;
39410;SDS011;26579;43.238;23.124;2023-08-30T14:01:22;7.03;;;3.42;;
39410;SDS011;26579;43.238;23.124;2023-08-30T14:03:47;10.68;;;5.32;;
39410;SDS011;26579;43.238;23.124;2023-08-30T14:06:13;10.82;;;3.88;;
39410;SDS011;26579;43.238;23.124;2023-08-30T14:08:39;11.07;;;5.30;;
39410;SDS011;26579;43.238;23.124;2023-08-30T14:11:04;21.85;;;18.75;;
39410;SDS011;26579;43.238;23.124;2023-08-30T14:13:30;10.50;;;5.95;;
39410;SDS011;26579;43.238;23.124;2023-08-30T14:15:56;7.30;;;3.75;;
39410;SDS011;26579;43.238;23.124;2023-08-30T14:18:22;9.30;;;4.45;;
39410;SDS011;26579;43.238;23.124;2023-08-30T14:20:47;8.23;;;3.20;;
39410;SDS011;26579;43.238;23.124;2023-08-30T14:23:13;7.45;;;3.90;;
39410;SDS011;26579;43.238;23.124;2023-08-30T14:25:39;9.15;;;3.13;;
39410;SDS011;26579;43.238;23.124;2023-08-30T14:28:06;6.90;;;3.35;;
39410;SDS011;26579;43.238;23.124;2023-08-30T14:30:32;6.95;;;3.28;;
39410;SDS011;26579;43.238;23.124;2023-08-30T14:32:57;11.05;;;4.28;;
39410;SDS011;26579;43.238;23.124;2023-08-30T14:35:23;6.38;;;2.97;;
39410;SDS011;26579;43.238;23.124;2023-08-30T14:37:49;6.03;;;2.50;;